Latest Weather Observations for Brisbane Airport

IDQ60801

Issued at 2:35 pm EST Monday 24 November 2014 (issued every 30 minutes, with the page automatically refreshed every 10 minutes)

About weather observations | Map of weather stations | Latest weather observations for QLD | Other Formats
Station Details ID: 040842 Name: BRISBANE AERO Lat: -27.39 Lon: 153.13 Height: 4.51 m
Data from the previous 72 hours. | See also: Recent months at Brisbane Airport
Date/Time
EST
Temp
°C
App
Temp
°C
Dew
Point
Rel
Hum
%
Delta-T
°C
Wind Press
QNH
hPa
Press
MSL
hPa
Rain
since 9 am
mm
Dir
 
Spd
km/h
Gust
km/h
Spd
kts
Gust
kts
24/02:30pm 27.7 25.1 20.6 65 4.7 N 35 44 19 24 1013.3 - 0.0
24/02:00pm 28.0 25.1 20.9 65 4.7 N 37 48 20 26 1013.8 - 0.0
24/01:30pm 27.9 25.1 20.3 63 5.0 N 35 44 19 24 1014.2 - 0.0
24/01:00pm 28.1 25.2 20.0 61 5.3 NNE 35 44 19 24 1014.7 - 0.0
24/12:30pm 28.2 25.2 19.9 60 5.4 NNE 35 43 19 23 1015.1 - 0.0
24/12:00pm 27.8 25.0 19.5 60 5.4 NNE 33 43 18 23 1015.4 1015.4 0.0
24/11:30am 27.7 24.7 19.0 59 5.6 NNE 33 41 18 22 1016.0 - 0.0
24/11:00am 27.7 25.1 19.5 61 5.3 NNE 32 41 17 22 1016.5 - 0.0
24/10:30am 27.2 25.0 19.6 63 4.9 NNE 30 39 16 21 1017.0 - 0.0
24/10:00am 27.2 25.0 19.6 63 4.9 NNE 30 35 16 19 1017.4 - 0.0
24/09:30am 27.3 26.2 19.4 62 5.1 NNE 24 30 13 16 1017.7 - 0.0
24/09:00am 27.1 25.4 17.2 54 6.2 N 22 28 12 15 1017.8 1017.8 0.0
24/08:30am 27.0 25.5 17.8 57 5.8 N 22 26 12 14 1017.8 - 0.0
24/08:00am 26.4 25.9 19.1 64 4.7 N 20 28 11 15 1018.0 - 0.0
24/07:30am 26.0 24.7 19.1 65 4.4 N 24 32 13 17 1017.9 - 0.0
24/07:00am 25.3 24.1 20.1 73 3.4 N 26 33 14 18 1017.9 - 0.0
24/06:30am 24.6 24.3 20.4 77 2.7 N 22 30 12 16 1017.9 - 0.0
24/06:00am 23.6 23.0 20.4 82 2.1 N 24 28 13 15 1017.7 1017.7 0.0
24/05:30am 23.3 22.6 20.2 83 2.0 NNW 24 32 13 17 1017.4 - 0.0
24/05:00am 23.0 22.3 20.2 84 1.8 N 24 32 13 17 1017.0 - 0.0
24/04:30am 22.9 21.8 20.3 85 1.7 NNW 26 33 14 18 1016.8 - 0.0
24/04:00am 23.2 22.6 20.4 84 1.8 N 24 32 13 17 1016.6 - 0.0
24/03:30am 23.2 22.6 20.6 85 1.7 N 24 32 13 17 1016.4 - 0.0
24/03:00am 23.4 22.8 20.5 84 1.9 N 24 37 13 20 1016.5 1016.5 0.0
24/02:30am 23.5 22.6 20.6 84 1.9 N 26 32 14 17 1016.4 - 0.0
24/02:00am 23.8 23.3 20.7 83 2.0 N 24 35 13 19 1016.3 - 0.0
24/01:30am 24.1 23.2 20.7 81 2.2 N 26 33 14 18 1016.3 - 0.0
24/01:00am 24.1 22.8 20.6 81 2.3 N 28 35 15 19 1016.3 - 0.0
24/12:30am 24.2 23.0 20.8 81 2.2 N 28 35 15 19 1016.6 - 0.0
24/12:00am 24.3 22.1 20.8 81 2.3 N 33 39 18 21 1016.8 1016.8 0.0
 
Date/Time
EST
Temp
°C
App
Temp
°C
Dew
Point
Rel
Hum
%
Delta-T
°C
Wind Press
QNH
hPa
Press
MSL
hPa
Rain
since 9 am
mm
Dir
 
Spd
km/h
Gust
km/h
Spd
kts
Gust
kts
23/11:30pm 24.5 22.5 20.7 79 2.5 N 32 39 17 21 1016.9 - 0.0
23/11:00pm 24.5 22.6 21.0 81 2.3 N 32 37 17 20 1016.8 - 0.0
23/10:30pm 24.6 24.3 21.1 81 2.3 N 24 32 13 17 1016.8 - 0.0
23/10:00pm 24.6 23.4 20.9 80 2.4 N 28 33 15 18 1016.6 - 0.0
23/09:30pm 24.6 22.9 20.6 78 2.6 N 30 35 16 19 1016.5 - 0.0
23/09:00pm 24.7 23.1 20.7 78 2.6 N 30 39 16 21 1016.4 1016.4 0.0
23/08:30pm 24.8 23.6 20.8 78 2.6 N 28 35 15 19 1016.3 - 0.0
23/08:00pm 24.7 23.4 20.6 78 2.7 N 28 35 15 19 1016.0 - 0.0
23/07:30pm 24.8 23.0 20.3 76 2.9 N 30 37 16 20 1015.5 - 0.0
23/07:00pm 25.0 23.4 20.1 74 3.2 N 28 35 15 19 1015.2 - 0.0
23/06:30pm 25.2 23.6 20.1 73 3.3 N 28 35 15 19 1014.9 - 0.0
23/06:00pm 25.4 23.4 20.0 72 3.5 N 30 37 16 20 1014.3 1014.3 0.0
23/05:30pm 25.8 23.2 19.6 68 4.0 N 32 39 17 21 1013.9 - 0.0
23/05:00pm 26.3 23.6 19.3 65 4.5 N 32 41 17 22 1013.7 - 0.0
23/04:30pm 26.7 24.3 19.1 63 4.9 N 30 37 16 20 1013.9 - 0.0
23/04:00pm 27.3 24.1 19.4 62 5.1 N 35 44 19 24 1013.9 - 0.0
23/03:30pm 28.0 25.1 19.2 58 5.7 N 33 43 18 23 1014.0 - 0.0
23/03:00pm 27.6 24.0 17.6 54 6.3 N 33 46 18 25 1014.4 1014.4 0.0
23/02:30pm 28.0 25.0 19.0 58 5.8 N 33 41 18 22 1014.6 - 0.0
23/02:00pm 28.2 25.0 20.3 62 5.2 N 37 46 20 25 1014.8 - 0.0
23/01:30pm 27.7 24.7 19.9 62 5.1 N 35 44 19 24 1015.1 - 0.0
23/01:00pm 27.8 25.4 20.3 63 4.9 N 33 46 18 25 1015.5 - 0.0
23/12:30pm 27.7 25.0 20.4 64 4.8 N 35 46 19 25 1015.7 - 0.0
23/12:00pm 27.9 25.3 20.6 64 4.8 NNE 35 43 19 23 1016.3 1016.3 0.0
23/11:30am 28.3 25.9 20.4 62 5.2 N 33 41 18 22 1016.9 - 0.0
23/11:00am 28.0 26.0 21.1 66 4.6 N 33 41 18 22 1017.3 - 0.0
23/10:30am 27.8 25.5 21.2 67 4.4 NNE 35 43 19 23 1017.5 - 0.0
23/10:00am 28.0 26.5 21.7 68 4.2 NNE 32 39 17 21 1017.6 - 0.0
23/09:30am 27.1 26.2 21.4 71 3.8 NNE 28 37 15 20 1017.6 - 0.0
23/09:00am 27.5 27.4 20.8 67 4.4 N 22 32 12 17 1017.9 1017.9 0.0
23/08:30am 27.2 26.7 20.8 68 4.2 N 24 32 13 17 1017.8 - 0.0
23/08:00am 26.5 25.6 20.7 70 3.8 N 26 32 14 17 1017.9 - 0.0
23/07:30am 26.5 25.7 20.9 71 3.7 N 26 32 14 17 1017.9 - 0.0
23/07:00am 26.2 25.1 21.0 73 3.4 N 28 32 15 17 1017.6 - 0.0
23/06:30am 25.5 24.3 20.8 75 3.1 N 28 37 15 20 1017.1 - 0.0
23/06:00am 25.2 23.4 20.4 74 3.1 N 30 39 16 21 1016.6 1016.6 0.0
23/05:30am 24.5 22.5 20.7 79 2.5 N 32 39 17 21 1016.2 - 0.0
23/05:00am 24.0 22.8 20.9 83 2.0 N 28 35 15 19 1016.0 - 0.0
23/04:30am 24.1 22.9 20.9 82 2.1 N 28 33 15 18 1015.7 - 0.0
23/04:00am 24.2 22.2 20.8 81 2.2 N 32 39 17 21 1015.1 - 0.0
23/03:30am 24.0 22.2 21.1 84 1.9 N 32 39 17 21 1014.7 - 0.0
23/03:00am 24.0 22.8 21.6 86 1.6 N 30 37 16 20 1014.6 1014.6 0.0
23/02:30am 24.3 23.0 21.4 84 1.9 N 30 37 16 20 1014.6 - 0.0
23/02:00am 24.4 22.9 21.8 85 1.7 N 32 39 17 21 1014.3 - 0.0
23/01:30am 24.6 23.2 21.9 85 1.8 N 32 43 17 23 1014.3 - 0.0
23/01:00am 24.5 23.2 22.1 86 1.6 N 32 39 17 21 1014.6 - 0.0
23/12:30am 24.5 23.0 22.1 86 1.6 N 33 43 18 23 1014.8 - 0.0
23/12:00am 24.6 22.7 22.0 85 1.7 N 35 44 19 24 1014.8 1014.8 0.0
 
Date/Time
EST
Temp
°C
App
Temp
°C
Dew
Point
Rel
Hum
%
Delta-T
°C
Wind Press
QNH
hPa
Press
MSL
hPa
Rain
since 9 am
mm
Dir
 
Spd
km/h
Gust
km/h
Spd
kts
Gust
kts
22/11:30pm 24.9 23.5 21.9 83 2.0 N 32 41 17 22 1015.1 - 0.0
22/11:00pm 24.9 23.3 21.9 83 2.0 N 33 43 18 23 1015.2 - 0.0
22/10:30pm 25.1 23.0 21.6 81 2.3 N 35 43 19 23 1015.2 - 0.0
22/10:00pm 25.1 22.8 21.3 79 2.5 N 35 48 19 26 1015.0 - 0.0
22/09:30pm 25.1 22.5 21.5 80 2.4 N 37 50 20 27 1014.9 - 0.0
22/09:06pm 25.2 22.6 21.4 79 2.5 N 37 56 20 30 1014.8 - 0.0
22/09:00pm 25.1 22.8 21.3 79 2.5 N 35 48 19 26 1014.7 1014.7 0.0
22/08:30pm 25.2 23.0 21.4 79 2.5 N 35 46 19 25 1014.5 - 0.0
22/08:00pm 25.2 23.5 21.3 79 2.6 N 32 37 17 20 1014.2 - 0.0
22/07:30pm 25.5 23.6 21.4 78 2.7 N 33 41 18 22 1013.8 - 0.0
22/07:00pm 25.3 23.4 21.4 79 2.6 N 33 44 18 24 1013.4 - 0.0
22/06:30pm 25.4 23.8 21.5 79 2.6 N 32 43 17 23 1012.8 - 0.0
22/06:00pm 25.7 23.9 21.5 77 2.8 N 33 46 18 25 1012.4 1012.4 0.0
22/05:30pm 26.0 23.1 21.6 76 2.9 N 39 46 21 25 1012.2 - 0.0
22/05:00pm 26.2 24.8 21.9 77 2.9 N 32 41 17 22 1012.0 - 0.0
22/04:30pm 26.5 24.1 21.9 76 3.1 N 37 48 20 26 1011.8 - 0.0
22/04:00pm 27.3 26.1 22.3 74 3.4 N 32 41 17 22 1011.6 - 0.0
22/03:30pm 27.8 25.9 22.0 70 3.9 N 35 48 19 26 1011.6 - 0.0
22/03:00pm 27.8 25.7 22.3 72 3.7 NNE 37 50 20 27 1011.7 1011.7 0.0
22/02:30pm 28.0 25.4 22.2 70 3.9 NNE 39 52 21 28 1011.7 - 0.0
22/02:00pm 28.1 25.3 22.5 71 3.8 NNE 41 50 22 27 1012.1 - 0.0
22/01:30pm 28.9 26.7 22.9 70 4.1 NNE 39 54 21 29 1012.4 - 0.0
22/01:00pm 28.0 25.7 22.7 73 3.6 NNE 39 52 21 28 1012.5 - 0.0
22/12:30pm 28.8 26.7 23.1 71 3.9 NNE 39 48 21 26 1012.9 - 0.0
22/12:00pm 28.0 26.2 23.0 74 3.4 NNE 37 50 20 27 1013.3 1013.3 0.0
22/11:30am 28.2 26.9 23.2 74 3.4 NNE 35 46 19 25 1013.7 - 0.0
22/11:00am 28.1 26.8 23.1 74 3.4 N 35 43 19 23 1014.0 - 0.0
22/10:30am 28.4 27.5 23.1 73 3.6 N 33 44 18 24 1014.4 - 0.0
22/10:00am 27.9 26.8 22.9 74 3.4 NNE 33 39 18 21 1014.7 - 0.0
22/09:30am 29.0 28.1 21.4 63 5.1 N 28 33 15 18 1014.9 - 0.0
22/09:00am 28.6 29.7 21.9 67 4.5 N 19 26 10 14 1014.9 1014.9 0.0
22/08:30am 27.4 27.3 21.4 70 4.0 N 24 30 13 16 1014.9 - 0.0
22/08:00am 26.5 26.4 21.4 73 3.4 N 24 26 13 14 1015.1 - 0.0
22/07:30am 26.5 27.3 21.7 75 3.2 N 20 26 11 14 1015.1 - 0.0
22/07:00am 25.9 26.6 21.5 76 2.9 N 20 26 11 14 1015.1 - 0.0
22/06:30am 25.8 25.4 21.6 77 2.8 N 26 32 14 17 1014.5 - 0.0
22/06:00am 25.1 25.2 21.2 79 2.6 N 22 28 12 15 1014.2 1014.2 0.0
22/05:30am 24.5 24.1 21.6 84 1.9 N 26 33 14 18 1014.1 - 0.0
22/05:00am 24.4 23.3 21.7 85 1.8 N 30 37 16 20 1013.5 - 0.0
22/04:30am 24.3 23.0 21.3 83 2.0 N 30 37 16 20 1013.1 - 0.0
22/04:00am 24.2 22.6 21.5 85 1.8 N 32 37 17 20 1012.7 - 0.0
22/03:30am 24.4 22.6 21.2 82 2.1 N 32 39 17 21 1012.3 - 0.0
22/03:00am 24.4 24.2 21.2 82 2.1 N 24 32 13 17 1012.4 1012.4 0.0
22/02:30am 24.6 22.9 21.3 82 2.2 N 32 37 17 20 1012.0 - 0.0
22/02:00am 24.7 22.4 21.2 81 2.3 N 35 46 19 25 1011.3 - 0.0
22/01:30am 24.8 22.0 21.0 79 2.5 N 37 44 20 24 1011.5 - 0.0
22/01:00am 24.9 23.0 20.9 78 2.6 N 32 43 17 23 1011.9 - 0.0
22/12:30am 25.1 23.5 21.5 80 2.4 N 32 41 17 22 1012.5 - 0.0
22/12:00am 24.9 22.3 22.1 84 1.9 N 39 44 21 24 1012.1 1012.1 0.0
 
Date/Time
EST
Temp
°C
App
Temp
°C
Dew
Point
Rel
Hum
%
Delta-T
°C
Wind Press
QNH
hPa
Press
MSL
hPa
Rain
since 9 am
mm
Dir
 
Spd
km/h
Gust
km/h
Spd
kts
Gust
kts
21/11:30pm 25.1 23.7 22.3 84 1.9 N 33 41 18 22 1012.4 - 0.0
21/11:00pm 25.2 23.9 22.5 85 1.8 N 33 41 18 22 1013.1 - 0.0
21/10:30pm 25.1 24.6 22.9 87 1.5 N 30 37 16 20 1013.5 - 0.0
21/10:00pm 25.2 24.3 22.8 86 1.6 N 32 41 17 22 1013.4 - 0.0
21/09:30pm 25.2 24.3 22.8 86 1.6 N 32 41 17 22 1013.4 - 0.0
21/09:00pm 25.2 24.0 22.7 86 1.7 N 33 44 18 24 1013.5 1013.5 0.0
21/08:30pm 25.2 23.3 22.8 86 1.6 N 37 48 20 26 1012.4 - 0.0
21/08:00pm 25.3 23.8 22.8 86 1.7 N 35 46 19 25 1012.5 - 0.0
21/07:30pm 25.3 23.6 22.5 84 1.9 N 35 44 19 24 1012.4 - 0.0
21/07:00pm 25.4 23.3 22.4 83 2.0 N 37 48 20 26 1012.1 - 0.0
21/06:30pm 25.3 23.7 22.6 85 1.8 N 35 46 19 25 1011.9 - 0.0
21/06:00pm 25.5 23.5 22.5 83 2.0 N 37 50 20 27 1011.4 1011.4 0.0
21/05:30pm 25.9 23.2 22.6 82 2.2 N 41 50 22 27 1011.1 - 0.0
21/05:00pm 26.4 23.9 22.4 78 2.7 N 39 50 21 27 1011.0 - 0.0
21/04:30pm 26.7 24.1 22.1 76 3.1 N 39 54 21 29 1010.6 - 0.0
21/04:00pm 27.2 24.3 22.3 74 3.3 N 41 50 22 27 1010.9 - 0.0
21/03:30pm 27.7 24.9 22.5 73 3.5 N 41 50 22 27 1010.9 - 0.0
21/03:00pm 27.5 24.3 22.5 74 3.4 NNE 43 56 23 30 1010.9 1010.9 0.0

Other Formats:

Comma delimited format used in spreadsheet applications
http://www.bom.gov.au/fwo/IDQ60801/IDQ60801.94578.axf

JavaScript Object Notation format (JSON) in row-major order
http://www.bom.gov.au/fwo/IDQ60801/IDQ60801.94578.json